Time;durP1;ratioP1;P1;durP2;ratioP2;P2;SDS_P1;SDS_P2;PMS_P1;PMS_P2;Temp;Humidity;BMP_temperature;BMP_pressure;BME280_temperature;BME280_humidity;BME280_pressure;Samples;Min_cycle;Max_cycle;Signal;HPM_P1;HPM_P2
2021/09/04 00:00:42;;;;;;;10.98;6.85;;;;;;;9.80;94.48;95664.09;5027179;28;20053;-75
2021/09/04 00:03:08;;;;;;;13.73;7.43;;;;;;;9.80;94.29;95662.25;5033814;28;20049;-75
2021/09/04 00:05:34;;;;;;;12.85;6.90;;;;;;;9.89;94.80;95652.78;5028144;28;20103;-75
2021/09/04 00:07:59;;;;;;;12.52;7.55;;;;;;;9.83;94.16;95661.72;5029939;28;20454;-75
2021/09/04 00:10:25;;;;;;;17.45;7.47;;;;;;;9.75;94.30;95656.97;5024196;28;20533;-75
2021/09/04 00:12:50;;;;;;;11.20;6.63;;;;;;;9.75;93.98;95656.97;5029704;28;20499;-75
2021/09/04 00:15:16;;;;;;;14.07;7.03;;;;;;;9.81;93.54;95655.94;5010959;28;20041;-75
2021/09/04 00:17:43;;;;;;;11.85;6.18;;;;;;;9.84;93.86;95660.69;5027642;28;20056;-74
2021/09/04 00:20:09;;;;;;;14.00;7.10;;;;;;;9.75;93.05;95656.97;5027480;28;20050;-76
2021/09/04 00:22:35;;;;;;;10.68;6.55;;;;;;;9.57;94.21;95649.56;5022549;28;20107;-75
2021/09/04 00:25:01;;;;;;;10.32;6.10;;;;;;;9.58;94.42;95645.91;5033700;28;20487;-77
2021/09/04 00:27:26;;;;;;;13.73;7.60;;;;;;;9.52;94.63;95653.78;5010007;28;20647;-75
2021/09/04 00:29:52;;;;;;;13.00;7.07;;;;;;;9.26;94.69;95649.47;5007408;28;20045;-75
2021/09/04 00:32:18;;;;;;;10.13;6.40;;;;;;;9.43;94.99;95647.44;5026111;28;20049;-74
2021/09/04 00:34:43;;;;;;;13.73;6.72;;;;;;;9.50;93.96;95650.59;5027419;28;20042;-75
2021/09/04 00:37:09;;;;;;;11.45;6.70;;;;;;;9.47;93.94;95645.88;5023428;28;20053;-75
2021/09/04 00:39:34;;;;;;;11.75;6.80;;;;;;;9.47;93.88;95645.88;5009394;28;20469;-75
2021/09/04 00:42:00;;;;;;;12.70;7.03;;;;;;;9.35;94.77;95647.94;5025428;28;20573;-74
2021/09/04 00:44:26;;;;;;;13.57;6.53;;;;;;;9.30;93.93;95643.44;5027270;28;20044;-75
2021/09/04 00:47:00;;;;;;;13.10;6.75;;;;;;;9.32;93.87;95644.00;5021714;28;20164;-75
2021/09/04 00:49:25;;;;;;;12.73;6.63;;;;;;;9.27;93.27;95638.72;5010633;28;20037;-75
2021/09/04 00:51:51;;;;;;;11.40;6.35;;;;;;;9.24;94.25;95651.56;5026109;28;20095;-74
2021/09/04 00:54:16;;;;;;;11.98;6.85;;;;;;;9.19;94.76;95645.25;5026836;28;20116;-74
2021/09/04 00:56:43;;;;;;;13.10;6.50;;;;;;;9.27;94.60;95645.81;5022150;28;20045;-77
2021/09/04 00:59:09;;;;;;;12.45;6.95;;;;;;;9.02;94.03;95655.16;5023904;28;20068;-74
2021/09/04 01:01:35;;;;;;;14.52;6.70;;;;;;;8.86;95.78;95645.63;5026283;28;20530;-75
2021/09/04 01:04:01;;;;;;;12.82;6.82;;;;;;;8.92;95.59;95645.41;5008590;28;20037;-75
2021/09/04 01:06:27;;;;;;;12.25;6.78;;;;;;;9.01;95.45;95648.34;5026996;28;20041;-75
2021/09/04 01:08:53;;;;;;;11.20;6.97;;;;;;;9.06;95.62;95645.72;5021632;28;20046;-74
2021/09/04 01:11:19;;;;;;;13.10;6.20;;;;;;;9.12;94.55;95655.22;5025667;28;20041;-75
2021/09/04 01:13:45;;;;;;;11.45;6.25;;;;;;;9.05;94.76;95648.59;5007169;28;20109;-75
2021/09/04 01:16:10;;;;;;;13.63;6.45;;;;;;;9.00;94.87;95642.28;5030708;28;20653;-75
2021/09/04 01:18:37;;;;;;;15.98;6.80;;;;;;;8.91;95.11;95637.78;5026161;28;20049;-75
2021/09/04 01:21:04;;;;;;;13.15;7.10;;;;;;;8.93;94.60;95646.19;5022223;28;20049;-75
2021/09/04 01:23:30;;;;;;;11.00;6.80;;;;;;;8.86;94.85;95650.88;5023561;28;20037;-75
2021/09/04 01:25:56;;;;;;;12.35;6.60;;;;;;;9.01;94.71;95658.84;5025347;28;20092;-75
2021/09/04 01:28:22;;;;;;;11.52;6.65;;;;;;;8.77;94.88;95646.09;5025745;28;20049;-75
2021/09/04 01:30:48;;;;;;;12.85;6.60;;;;;;;8.60;95.72;95637.59;5022396;28;20037;-75
2021/09/04 01:33:14;;;;;;;12.52;6.63;;;;;;;8.71;94.92;95634.00;5034212;28;20037;-74
2021/09/04 01:35:40;;;;;;;12.60;6.35;;;;;;;8.71;95.63;95639.25;5026277;28;20048;-75
2021/09/04 01:38:05;;;;;;;12.85;7.00;;;;;;;8.55;95.57;95634.94;5025142;28;20116;-75
2021/09/04 01:40:31;;;;;;;17.27;6.47;;;;;;;8.70;95.70;95636.88;5024823;28;20037;-75
2021/09/04 01:42:57;;;;;;;13.90;7.15;;;;;;;8.76;95.15;95631.38;5027357;28;20049;-75
2021/09/04 01:45:22;;;;;;;12.32;6.18;;;;;;;8.74;95.10;95628.25;5023085;28;20049;-75
2021/09/04 01:47:48;;;;;;;11.88;7.03;;;;;;;8.76;95.70;95628.00;5025094;28;20768;-75
2021/09/04 01:50:15;;;;;;;9.50;6.13;;;;;;;8.70;94.88;95621.13;5005264;28;20048;-75
2021/09/04 01:52:42;;;;;;;12.77;6.55;;;;;;;8.83;94.88;95626.72;5024806;28;20049;-75
2021/09/04 01:55:09;;;;;;;13.98;6.65;;;;;;;8.85;94.77;95629.09;5025962;28;20037;-75
2021/09/04 01:57:35;;;;;;;14.40;7.13;;;;;;;8.62;95.74;95625.00;5026719;28;20838;-75
2021/09/04 02:00:01;;;;;;;10.27;5.57;;;;;;;8.57;95.98;95627.63;5023893;28;20041;-74
2021/09/04 02:02:27;;;;;;;12.85;6.85;;;;;;;8.58;95.13;95629.22;5026441;28;20045;-74
2021/09/04 02:04:52;;;;;;;11.68;6.60;;;;;;;8.65;95.20;95620.06;5027858;28;20091;-76
2021/09/04 02:07:18;;;;;;;12.05;6.43;;;;;;;8.56;95.13;95626.03;5025965;28;20448;-75
2021/09/04 02:09:44;;;;;;;12.02;6.47;;;;;;;8.48;95.40;95620.22;5026556;28;20129;-75
2021/09/04 02:12:09;;;;;;;12.45;7.07;;;;;;;8.35;95.05;95631.13;5009641;28;20046;-75
2021/09/04 02:14:35;;;;;;;13.27;6.95;;;;;;;8.40;95.24;95618.03;5027757;28;20487;-75
2021/09/04 02:17:00;;;;;;;11.82;6.65;;;;;;;8.46;94.74;95627.56;5018997;28;20053;-76
2021/09/04 02:19:26;;;;;;;12.27;7.07;;;;;;;8.50;94.56;95617.34;5027633;28;20091;-76
2021/09/04 02:21:51;;;;;;;11.05;6.63;;;;;;;8.27;96.32;95614.00;5016287;28;20038;-76
2021/09/04 02:24:17;;;;;;;12.23;6.97;;;;;;;8.33;95.95;95612.22;5026970;28;20571;-75
2021/09/04 02:26:42;;;;;;;14.85;6.57;;;;;;;8.32;95.35;95606.19;5008800;28;20048;-75
2021/09/04 02:29:08;;;;;;;11.60;6.20;;;;;;;8.33;95.03;95606.97;5027298;28;20120;-75
2021/09/04 02:31:33;;;;;;;11.27;6.45;;;;;;;8.25;94.70;95604.84;5020530;28;20061;-75
2021/09/04 02:33:59;;;;;;;10.75;6.20;;;;;;;8.30;94.48;95599.63;5027842;28;20045;-75
2021/09/04 02:36:25;;;;;;;15.75;6.38;;;;;;;8.43;93.74;95607.06;5018889;28;20049;-75
2021/09/04 02:38:51;;;;;;;12.50;6.70;;;;;;;8.35;94.60;95610.16;5010056;28;20072;-75
2021/09/04 02:41:17;;;;;;;13.27;6.35;;;;;;;8.19;94.28;95605.81;5025313;28;20510;-76
2021/09/04 02:43:42;;;;;;;10.52;6.53;;;;;;;8.07;94.84;95604.16;5009935;28;20033;-75
2021/09/04 02:46:09;;;;;;;13.45;6.30;;;;;;;8.14;95.04;95603.97;5025933;28;20045;-75
2021/09/04 02:48:35;;;;;;;14.50;6.80;;;;;;;8.07;93.98;95598.91;5027489;28;20038;-75
2021/09/04 02:51:01;;;;;;;11.32;6.50;;;;;;;8.01;94.70;95599.94;5017920;28;20046;-75
2021/09/04 02:53:27;;;;;;;11.05;6.53;;;;;;;8.17;93.99;95602.69;5017095;28;20049;-75
2021/09/04 02:55:52;;;;;;;11.93;6.70;;;;;;;8.18;93.99;95599.81;5013886;28;20061;-75
2021/09/04 02:58:18;;;;;;;12.07;6.45;;;;;;;8.09;94.43;95596.84;5031564;28;20499;-75
2021/09/04 03:00:44;;;;;;;12.10;6.30;;;;;;;8.07;94.59;95598.91;5029859;28;20053;-75
2021/09/04 03:03:10;;;;;;;12.50;6.03;;;;;;;8.08;94.12;95595.28;5030658;28;20049;-75
2021/09/04 03:05:35;;;;;;;11.32;6.25;;;;;;;8.07;94.07;95587.66;5030600;28;20056;-75
2021/09/04 03:08:02;;;;;;;10.60;5.82;;;;;;;8.04;93.64;95593.41;5030076;28;20041;-75
2021/09/04 03:10:28;;;;;;;11.20;6.65;;;;;;;8.05;94.14;95590.53;5015700;28;20096;-75
2021/09/04 03:12:54;;;;;;;14.63;6.95;;;;;;;7.95;94.23;95590.47;5010947;28;20045;-75
2021/09/04 03:15:19;;;;;;;10.95;5.93;;;;;;;7.94;94.54;95591.50;5029675;28;20483;-75
2021/09/04 03:17:45;;;;;;;13.40;6.53;;;;;;;7.89;94.21;95592.25;5031221;28;20548;-74
2021/09/04 03:20:11;;;;;;;10.52;6.05;;;;;;;7.72;94.78;95592.38;5020175;28;20084;-75
2021/09/04 03:22:37;;;;;;;11.13;6.03;;;;;;;7.69;95.08;95592.88;5029475;28;20091;-75
2021/09/04 03:25:04;;;;;;;11.30;6.68;;;;;;;7.77;94.92;95589.78;5029995;28;20054;-75
2021/09/04 03:27:31;;;;;;;11.52;6.45;;;;;;;7.84;94.22;95586.19;5030673;28;20051;-75
2021/09/04 03:29:57;;;;;;;15.60;6.50;;;;;;;7.86;94.80;95599.81;5024067;28;20495;-76
2021/09/04 03:32:23;;;;;;;11.07;6.97;;;;;;;7.79;94.13;95598.19;5030421;28;20041;-76
2021/09/04 03:34:49;;;;;;;13.32;6.97;;;;;;;7.69;94.54;95592.88;5033447;28;20044;-75
2021/09/04 03:37:15;;;;;;;9.82;6.15;;;;;;;7.65;95.03;95591.78;5022970;28;20725;-75
2021/09/04 03:39:41;;;;;;;10.23;6.07;;;;;;;7.64;94.53;95584.94;5027917;28;20049;-75
2021/09/04 03:42:06;;;;;;;10.75;6.50;;;;;;;7.52;94.27;95586.94;5030132;28;20080;-75
2021/09/04 03:44:32;;;;;;;11.00;6.15;;;;;;;7.54;94.87;95600.56;5026801;28;20052;-75
2021/09/04 03:46:57;;;;;;;13.70;6.57;;;;;;;7.65;95.14;95591.00;5027722;28;20041;-75
2021/09/04 03:49:23;;;;;;;10.23;6.13;;;;;;;7.53;95.19;95588.50;5028661;28;20049;-75
2021/09/04 03:51:49;;;;;;;10.95;6.18;;;;;;;7.59;94.64;95592.78;5024801;28;20072;-75
2021/09/04 03:54:15;;;;;;;11.23;6.57;;;;;;;7.62;95.39;95597.50;5020701;28;20052;-75
2021/09/04 03:56:40;;;;;;;12.65;6.90;;;;;;;7.52;95.39;95598.19;5013067;28;20050;-74
2021/09/04 03:59:06;;;;;;;16.95;6.63;;;;;;;7.45;95.38;95598.38;5029585;28;20049;-75
2021/09/04 04:01:31;;;;;;;11.63;6.80;;;;;;;7.44;95.63;95602.06;5016092;28;20192;-75
2021/09/04 04:03:56;;;;;;;12.77;6.78;;;;;;;7.49;95.29;95603.16;5027928;28;20050;-75
2021/09/04 04:06:22;;;;;;;14.15;6.18;;;;;;;7.35;95.27;95603.53;5012367;28;20041;-75
2021/09/04 04:08:47;;;;;;;10.45;5.93;;;;;;;7.30;96.04;95603.50;5006207;28;20568;-76
2021/09/04 04:11:13;;;;;;;11.90;6.28;;;;;;;7.49;95.25;95603.16;5029862;28;20132;-75
2021/09/04 04:13:39;;;;;;;10.13;6.28;;;;;;;7.39;95.44;95595.97;5028752;28;20431;-75
2021/09/04 04:16:05;;;;;;;13.63;6.43;;;;;;;7.37;95.85;95611.94;5027005;28;20047;-76
2021/09/04 04:18:33;;;;;;;10.27;5.93;;;;;;;7.39;95.48;95599.38;5024015;28;20041;-75
2021/09/04 04:21:00;;;;;;;12.18;6.25;;;;;;;7.48;94.99;95604.19;5026929;28;20164;-75
2021/09/04 04:23:25;;;;;;;16.08;6.82;;;;;;;7.43;95.18;95600.47;5021847;28;20046;-75
2021/09/04 04:25:51;;;;;;;15.57;6.82;;;;;;;7.43;96.13;95600.47;5020414;28;20056;-75
2021/09/04 04:28:17;;;;;;;13.85;6.97;;;;;;;7.41;96.33;95597.31;5028608;28;20049;-75
2021/09/04 04:30:44;;;;;;;10.98;6.40;;;;;;;7.40;96.11;95595.72;5024114;28;20281;-74
2021/09/04 04:33:09;;;;;;;12.85;6.82;;;;;;;7.40;95.98;95595.72;5029370;28;20055;-75
2021/09/04 04:35:35;;;;;;;11.68;6.38;;;;;;;7.31;95.58;95597.19;5028436;28;20042;-75
2021/09/04 04:38:01;;;;;;;13.68;7.55;;;;;;;7.18;96.92;95603.59;5028501;28;20041;-75
2021/09/04 04:40:27;;;;;;;11.85;6.60;;;;;;;7.13;96.23;95597.53;5003666;28;20118;-75
2021/09/04 04:42:53;;;;;;;11.57;6.70;;;;;;;7.17;95.95;95593.38;5016488;28;20534;-75
2021/09/04 04:45:18;;;;;;;13.20;6.15;;;;;;;7.31;96.08;95597.19;5028870;28;20056;-75
2021/09/04 04:47:44;;;;;;;12.88;6.82;;;;;;;7.33;96.28;95589.91;5019777;28;20048;-75
2021/09/04 04:50:10;;;;;;;12.90;6.38;;;;;;;7.33;95.60;95597.75;5015894;28;20042;-74
2021/09/04 04:52:36;;;;;;;12.60;6.80;;;;;;;7.29;95.92;95591.44;5016853;28;20044;-74
2021/09/04 04:55:02;;;;;;;15.10;6.97;;;;;;;7.18;96.36;95592.34;5015890;28;20485;-75
2021/09/04 04:57:28;;;;;;;11.90;6.65;;;;;;;7.15;96.54;95590.22;5028319;28;20212;-75
2021/09/04 04:59:53;;;;;;;11.40;6.72;;;;;;;7.10;96.63;95591.75;5029016;28;20057;-75
2021/09/04 05:02:19;;;;;;;10.98;6.30;;;;;;;7.14;96.02;95601.72;5025488;28;20711;-75
2021/09/04 05:04:44;;;;;;;12.18;6.63;;;;;;;7.35;95.93;95592.28;5021862;28;20048;-75
2021/09/04 05:07:10;;;;;;;14.75;6.70;;;;;;;7.40;95.54;95595.72;5028812;28;20053;-74
2021/09/04 05:09:35;;;;;;;13.45;6.90;;;;;;;7.37;96.51;95596.22;5024234;28;20037;-75
2021/09/04 05:12:01;;;;;;;12.00;6.90;;;;;;;7.31;96.35;95591.97;5016692;28;20038;-75
2021/09/04 05:14:27;;;;;;;15.45;6.80;;;;;;;7.35;96.82;95598.28;5020765;28;20045;-75
2021/09/04 05:16:52;;;;;;;13.27;6.80;;;;;;;7.42;96.92;95598.88;5028655;28;20113;-75
2021/09/04 05:19:17;;;;;;;12.80;6.95;;;;;;;7.40;96.90;95603.59;5019793;28;20142;-75
2021/09/04 05:21:43;;;;;;;14.90;7.03;;;;;;;7.48;96.91;95606.81;5024278;28;20042;-74
2021/09/04 05:24:08;;;;;;;12.25;7.25;;;;;;;7.43;97.64;95597.84;5027742;28;20045;-75
2021/09/04 05:26:34;;;;;;;12.23;7.10;;;;;;;7.59;97.13;95608.50;5026960;28;20048;-75
2021/09/04 05:28:59;;;;;;;10.55;6.55;;;;;;;7.83;96.22;95603.72;5023836;28;20092;-75
2021/09/04 05:31:25;;;;;;;13.32;6.82;;;;;;;7.87;96.44;95604.00;5018084;28;20041;-74
2021/09/04 05:33:50;;;;;;;14.55;7.00;;;;;;;7.89;96.61;95604.56;5021299;28;20541;-75
2021/09/04 05:36:16;;;;;;;13.90;7.63;;;;;;;8.01;96.83;95610.41;5027409;28;20042;-75
2021/09/04 05:38:41;;;;;;;11.55;6.60;;;;;;;8.13;96.62;95608.44;5023976;28;20135;-75
2021/09/04 05:41:09;;;;;;;15.40;7.38;;;;;;;8.22;96.92;95610.59;5024673;28;20045;-73
2021/09/04 05:43:34;;;;;;;11.82;7.03;;;;;;;8.24;97.72;95598.00;5027021;28;20506;-81
2021/09/04 05:46:00;;;;;;;11.88;7.10;;;;;;;8.32;97.16;95600.94;5024334;28;20056;-81
2021/09/04 05:48:26;;;;;;;13.27;7.65;;;;;;;8.32;97.26;95594.94;5025427;28;20045;-82
2021/09/04 05:50:51;;;;;;;13.73;7.00;;;;;;;8.37;97.27;95592.31;5027709;28;20045;-83
2021/09/04 05:53:16;;;;;;;14.20;7.28;;;;;;;8.40;97.77;95591.81;5020158;28;20050;-84
2021/09/04 05:55:42;;;;;;;12.13;6.78;;;;;;;8.62;97.32;95598.78;5022822;28;20038;-83
2021/09/04 05:58:08;;;;;;;15.55;6.97;;;;;;;8.66;97.40;95599.84;5026899;28;20041;-83
2021/09/04 06:00:33;;;;;;;12.27;6.25;;;;;;;8.60;97.63;95598.25;5020054;28;20041;-74
2021/09/04 06:02:59;;;;;;;12.40;6.75;;;;;;;8.62;98.83;95598.78;5025855;28;20052;-75
2021/09/04 06:05:24;;;;;;;12.23;6.70;;;;;;;8.74;98.45;95598.59;5028129;28;20430;-75
2021/09/04 06:07:49;;;;;;;11.85;6.63;;;;;;;8.77;98.99;95604.13;5023820;28;20041;-75
2021/09/04 06:10:16;;;;;;;12.30;6.82;;;;;;;8.91;98.63;95601.81;5023720;28;20128;-75
2021/09/04 06:12:41;;;;;;;11.95;7.25;;;;;;;8.98;99.92;95604.22;5025320;28;20041;-76
2021/09/04 06:15:07;;;;;;;12.90;7.07;;;;;;;9.00;100.00;95596.88;5026483;28;20112;-75
2021/09/04 06:17:34;;;;;;;13.23;7.93;;;;;;;9.07;100.00;95600.06;5026287;28;20069;-75
2021/09/04 06:19:59;;;;;;;16.50;8.73;;;;;;;9.25;100.00;95596.19;5014029;28;20396;-75
2021/09/04 06:22:26;;;;;;;16.13;9.60;;;;;;;9.49;100.00;95601.75;5021137;28;20041;-76
2021/09/04 06:24:52;;;;;;;16.70;10.52;;;;;;;10.13;100.00;95604.97;5020105;28;20046;-75
2021/09/04 06:27:17;;;;;;;17.40;9.68;;;;;;;10.35;100.00;95601.28;5028820;28;20046;-75
2021/09/04 06:29:43;;;;;;;15.13;9.45;;;;;;;10.56;100.00;95600.19;5031736;28;20045;-75
2021/09/04 06:32:08;;;;;;;14.95;9.27;;;;;;;10.94;100.00;95612.22;5027958;28;20041;-74
2021/09/04 06:34:34;;;;;;;13.50;8.85;;;;;;;11.13;100.00;95605.28;5010972;28;20046;-75
2021/09/04 06:36:59;;;;;;;13.20;8.18;;;;;;;11.22;100.00;95593.13;5029214;28;20041;-83
2021/09/04 06:39:25;;;;;;;15.32;8.52;;;;;;;11.36;100.00;95600.44;5009731;28;20037;-81
2021/09/04 06:41:50;;;;;;;14.60;8.60;;;;;;;11.30;100.00;95604.16;5031521;28;20053;-83
2021/09/04 06:44:16;;;;;;;14.43;8.18;;;;;;;11.32;99.69;95596.78;5027729;28;20043;-82
2021/09/04 06:46:41;;;;;;;11.73;7.35;;;;;;;11.19;100.00;95604.22;5028808;28;20051;-82
2021/09/04 06:49:07;;;;;;;15.02;8.57;;;;;;;11.14;100.00;95606.88;5029297;28;20335;-82
2021/09/04 06:51:32;;;;;;;12.13;7.95;;;;;;;11.05;100.00;95608.50;5013515;28;20049;-82
2021/09/04 06:53:58;;;;;;;11.90;8.02;;;;;;;11.11;100.00;95610.03;5028377;28;20045;-75
2021/09/04 06:56:25;;;;;;;16.58;8.93;;;;;;;11.12;100.00;95614.25;5030424;28;20046;-74
2021/09/04 06:58:51;;;;;;;13.30;8.32;;;;;;;11.12;100.00;95614.25;5031440;28;20569;-75
2021/09/04 07:01:16;;;;;;;16.35;9.13;;;;;;;11.16;100.00;95620.56;5030237;28;20050;-76
2021/09/04 07:03:42;;;;;;;12.88;8.60;;;;;;;11.19;100.00;95620.03;5017241;28;20037;-75
2021/09/04 07:06:08;;;;;;;13.75;8.93;;;;;;;11.22;100.00;95624.75;5030307;28;20045;-75
2021/09/04 07:08:33;;;;;;;15.23;9.30;;;;;;;11.23;100.00;95621.06;5030411;28;20135;-77
2021/09/04 07:10:59;;;;;;;16.42;9.48;;;;;;;11.35;100.00;95627.84;5030270;28;20046;-75
2021/09/04 07:13:24;;;;;;;19.00;10.80;;;;;;;11.42;100.00;95628.31;5022807;28;20046;-76
2021/09/04 07:15:50;;;;;;;16.70;10.25;;;;;;;11.60;100.00;95619.81;5029130;28;20059;-73
2021/09/04 07:18:15;;;;;;;18.13;10.57;;;;;;;11.57;100.00;95615.06;5012722;28;20095;-76
2021/09/04 07:20:41;;;;;;;18.42;11.30;;;;;;;11.67;100.00;95624.78;5025164;28;20065;-75
2021/09/04 07:23:06;;;;;;;19.42;10.93;;;;;;;11.79;100.00;95627.06;5019527;28;20534;-73
2021/09/04 07:25:32;;;;;;;19.55;11.43;;;;;;;11.90;100.00;95623.31;5027453;28;20042;-75
2021/09/04 07:27:57;;;;;;;16.70;10.45;;;;;;;11.91;100.00;95624.91;5027288;28;20041;-76
2021/09/04 07:30:23;;;;;;;17.05;10.43;;;;;;;11.95;100.00;95633.88;5030058;28;20556;-74
2021/09/04 07:32:48;;;;;;;16.50;10.00;;;;;;;12.00;100.00;95632.25;5026671;28;20042;-73
2021/09/04 07:35:14;;;;;;;19.50;10.95;;;;;;;12.06;100.00;95625.88;5027834;28;20041;-74
2021/09/04 07:37:39;;;;;;;20.67;11.02;;;;;;;12.42;100.00;95628.22;5028663;28;20048;-74
2021/09/04 07:40:06;;;;;;;18.58;10.60;;;;;;;12.36;100.00;95629.34;5022996;28;20042;-74
2021/09/04 07:42:32;;;;;;;19.85;11.00;;;;;;;12.46;100.00;95624.75;5027983;28;20045;-76
2021/09/04 07:44:57;;;;;;;20.35;11.55;;;;;;;12.56;100.00;95634.41;5030253;28;20057;-74
2021/09/04 07:47:23;;;;;;;18.08;11.13;;;;;;;12.55;100.00;95638.13;5027206;28;20041;-72
2021/09/04 07:49:48;;;;;;;17.70;10.38;;;;;;;12.57;100.00;95637.84;5023029;28;20146;-76
2021/09/04 07:52:14;;;;;;;20.70;10.70;;;;;;;12.58;100.00;95637.56;5029108;28;20129;-77
2021/09/04 07:54:39;;;;;;;17.92;11.32;;;;;;;12.74;100.00;95637.41;5011838;28;20045;-74
2021/09/04 07:57:05;;;;;;;17.58;11.13;;;;;;;13.16;100.00;95641.22;5028756;28;20037;-76
2021/09/04 07:59:31;;;;;;;19.63;11.05;;;;;;;13.34;100.00;95637.81;5028991;28;20052;-74
2021/09/04 08:01:56;;;;;;;17.08;10.80;;;;;;;13.65;97.21;95645.38;5021068;28;20049;-74
2021/09/04 08:04:21;;;;;;;16.13;10.05;;;;;;;13.50;98.67;95640.28;5029657;28;20457;-74
2021/09/04 08:06:47;;;;;;;16.83;10.10;;;;;;;13.84;97.81;95641.94;5027673;28;20033;-73
2021/09/04 08:09:13;;;;;;;18.38;10.15;;;;;;;14.41;94.82;95646.38;5023344;28;20049;-73
2021/09/04 08:11:38;;;;;;;15.82;10.25;;;;;;;14.29;95.35;95644.97;5025915;28;20042;-74
2021/09/04 08:14:04;;;;;;;17.70;9.48;;;;;;;14.52;92.40;95639.84;5027398;28;20092;-74
2021/09/04 08:16:29;;;;;;;18.13;9.82;;;;;;;14.49;92.81;95637.78;5024928;28;20033;-74
2021/09/04 08:18:55;;;;;;;15.43;9.40;;;;;;;14.46;93.39;95635.72;5026133;28;20095;-74
2021/09/04 08:21:20;;;;;;;14.13;8.40;;;;;;;14.40;94.82;95639.53;5025395;28;20427;-73
2021/09/04 08:23:46;;;;;;;16.98;9.40;;;;;;;14.64;93.71;95640.19;5018942;28;20033;-73
2021/09/04 08:26:11;;;;;;;18.83;9.02;;;;;;;14.64;94.26;95640.19;5022486;28;20721;-74
2021/09/04 08:28:37;;;;;;;13.90;8.65;;;;;;;14.64;92.67;95640.19;5028391;28;20041;-77
2021/09/04 08:31:03;;;;;;;16.80;9.63;;;;;;;14.58;94.37;95641.31;5027846;28;20042;-74
2021/09/04 08:33:28;;;;;;;15.00;9.38;;;;;;;14.53;94.92;95641.41;5009217;28;20044;-80
2021/09/04 08:35:54;;;;;;;14.13;8.70;;;;;;;14.58;92.31;95641.31;5024219;28;20046;-74
2021/09/04 08:38:19;;;;;;;14.38;9.27;;;;;;;14.82;90.92;95645.72;5021670;28;20114;-74
2021/09/04 08:40:46;;;;;;;13.93;8.90;;;;;;;15.24;89.29;95654.44;5024744;28;20046;-77
2021/09/04 08:43:12;;;;;;;17.15;8.88;;;;;;;15.19;89.52;95644.75;5025553;28;20636;-74
2021/09/04 08:45:38;;;;;;;15.43;9.02;;;;;;;15.25;88.75;95656.03;5028633;28;20384;-76
2021/09/04 08:48:08;;;;;;;15.07;9.00;;;;;;;15.40;87.49;95650.44;5023687;28;20050;-75
2021/09/04 08:50:35;;;;;;;12.73;8.48;;;;;;;15.32;87.76;95653.78;5023394;28;20045;-75
2021/09/04 08:53:02;;;;;;;13.63;8.48;;;;;;;15.24;90.18;95654.44;5023499;28;20049;-75
2021/09/04 08:55:27;;;;;;;14.52;9.00;;;;;;;15.18;89.71;95645.03;5027222;28;20047;-75
2021/09/04 08:57:54;;;;;;;13.98;8.73;;;;;;;15.31;89.09;95646.13;5029212;28;20053;-73
2021/09/04 09:00:36;;;;;;;13.68;8.57;;;;;;;15.36;86.72;95649.44;5008496;28;20045;-74
2021/09/04 09:03:02;;;;;;;14.57;8.60;;;;;;;15.46;88.80;95652.97;5021742;28;20068;-76
2021/09/04 09:05:42;;;;;;;15.75;8.95;;;;;;;15.80;83.56;95652.53;5028151;28;20045;-75
2021/09/04 09:08:15;;;;;;;13.75;8.50;;;;;;;15.84;82.98;95642.91;5023453;28;20552;-83
2021/09/04 09:10:41;;;;;;;13.15;8.10;;;;;;;16.00;83.60;95646.00;5024419;28;20042;-75
2021/09/04 09:13:06;;;;;;;15.63;8.30;;;;;;;16.35;79.84;95646.25;5027716;28;20050;-75
2021/09/04 09:15:36;;;;;;;15.52;7.75;;;;;;;16.87;76.25;95647.63;5027535;28;20075;-75
2021/09/04 09:18:09;;;;;;;13.70;7.70;;;;;;;17.05;78.08;95645.84;5024405;28;20048;-78
2021/09/04 09:20:36;;;;;;;12.85;7.53;;;;;;;17.22;75.72;95639.81;5010583;28;20560;-72
2021/09/04 09:23:09;;;;;;;11.90;7.30;;;;;;;17.16;77.27;95641.06;5019328;28;20041;-73
2021/09/04 09:25:36;;;;;;;12.60;7.72;;;;;;;16.97;74.98;95647.41;5025094;28;20088;-75
2021/09/04 09:28:12;;;;;;;10.95;7.18;;;;;;;16.97;79.73;95644.75;5025421;28;20148;-74
2021/09/04 09:30:43;;;;;;;11.10;7.00;;;;;;;17.13;77.52;95640.56;5007682;28;20510;-75
2021/09/04 09:33:11;;;;;;;12.90;7.40;;;;;;;17.07;75.56;95639.16;5023931;28;20067;-73
2021/09/04 09:35:39;;;;;;;12.32;6.90;;;;;;;17.62;73.88;95643.19;5026059;28;20125;-74
2021/09/04 09:38:07;;;;;;;12.40;7.00;;;;;;;18.03;71.34;95641.22;5027654;28;20068;-76
2021/09/04 09:40:33;;;;;;;11.23;6.72;;;;;;;18.03;72.98;95641.22;5024002;28;20107;-74
2021/09/04 09:42:59;;;;;;;11.55;6.47;;;;;;;18.15;71.11;95644.03;5023522;28;20451;-74
2021/09/04 09:45:39;;;;;;;11.77;6.80;;;;;;;18.49;70.42;95631.00;5024441;28;20044;-74
2021/09/04 09:48:05;;;;;;;9.93;6.47;;;;;;;18.35;67.88;95631.16;5008333;28;20095;-74
2021/09/04 09:50:32;;;;;;;9.63;6.05;;;;;;;18.15;70.01;95632.59;5023665;28;20542;-73
2021/09/04 09:52:58;;;;;;;9.98;6.00;;;;;;;18.32;67.24;95632.56;5021110;28;20037;-74
2021/09/04 09:55:24;;;;;;;9.38;5.97;;;;;;;18.31;68.44;95630.22;5027522;28;20053;-73
2021/09/04 09:57:51;;;;;;;12.93;6.18;;;;;;;18.42;69.11;95626.13;5025045;28;20064;-74
2021/09/04 10:00:17;;;;;;;9.07;5.88;;;;;;;18.76;65.50;95629.81;5038895;28;20041;-75
2021/09/04 10:02:46;;;;;;;12.45;5.97;;;;;;;18.96;64.98;95622.25;5030045;28;20264;-74
2021/09/04 10:05:13;;;;;;;11.32;6.13;;;;;;;19.07;64.12;95628.78;5009603;28;20100;-75
2021/09/04 10:07:39;;;;;;;8.27;5.45;;;;;;;19.39;61.84;95623.91;5025496;28;20465;-74
2021/09/04 10:10:05;;;;;;;13.68;6.10;;;;;;;19.73;65.17;95627.47;5027415;28;20037;-74
2021/09/04 10:12:31;;;;;;;9.10;6.18;;;;;;;19.84;62.75;95634.03;5028318;28;20041;-79
2021/09/04 10:14:57;;;;;;;9.02;5.97;;;;;;;20.25;58.62;95629.72;5025985;28;20589;-74
2021/09/04 10:17:23;;;;;;;11.05;5.47;;;;;;;20.55;60.92;95623.50;5023029;28;20057;-75
2021/09/04 10:19:49;;;;;;;12.02;6.22;;;;;;;20.73;60.46;95614.22;5027334;28;20462;-75
2021/09/04 10:22:16;;;;;;;9.55;6.20;;;;;;;20.65;59.59;95611.59;5022384;28;20038;-75
2021/09/04 10:24:42;;;;;;;10.30;6.35;;;;;;;20.57;59.63;95600.66;5022078;28;20050;-75
2021/09/04 10:27:08;;;;;;;8.48;5.38;;;;;;;21.54;56.48;95600.28;5016204;28;20866;-75
2021/09/04 10:29:41;;;;;;;10.13;5.72;;;;;;;21.66;56.03;95602.16;5024533;28;20120;-74
2021/09/04 10:32:07;;;;;;;8.20;5.22;;;;;;;22.02;53.07;95605.06;4996335;28;20467;-75
2021/09/04 10:34:41;;;;;;;7.28;4.90;;;;;;;22.41;54.11;95602.69;5022703;28;20041;-74
2021/09/04 10:37:13;;;;;;;7.43;4.80;;;;;;;21.98;51.23;95604.97;5009496;28;20107;-74
2021/09/04 10:39:48;;;;;;;6.45;4.57;;;;;;;22.40;47.28;95603.81;5020949;28;20519;-75
2021/09/04 10:42:16;;;;;;;6.68;4.15;;;;;;;22.52;46.03;95600.28;5020267;28;20037;-76
2021/09/04 10:44:47;;;;;;;8.32;4.57;;;;;;;22.52;47.12;95603.75;5003728;28;20042;-76
2021/09/04 10:47:13;;;;;;;5.90;4.18;;;;;;;23.41;44.18;95606.28;5025511;28;20417;-73
2021/09/04 10:49:42;;;;;;;7.18;4.20;;;;;;;24.14;43.88;95609.34;5027878;28;20049;-74
2021/09/04 10:52:09;;;;;;;7.88;4.55;;;;;;;24.34;46.26;95600.13;5021217;28;20111;-74
2021/09/04 10:54:56;;;;;;;7.35;4.97;;;;;;;25.31;41.92;95597.50;5027389;28;20462;-74
2021/09/04 10:57:22;;;;;;;8.10;4.50;;;;;;;25.45;40.66;95591.56;5026828;28;20099;-73
2021/09/04 10:59:58;;;;;;;6.45;4.50;;;;;;;25.40;39.91;95585.34;5026604;28;20045;-74
2021/09/04 11:02:42;;;;;;;5.75;4.35;;;;;;;25.24;41.75;95592.75;5017159;28;20029;-73
2021/09/04 11:05:26;;;;;;;9.55;4.93;;;;;;;25.98;40.75;95591.47;5022028;28;20041;-74
2021/09/04 11:08:05;;;;;;;9.23;5.15;;;;;;;25.42;43.18;95588.44;5019765;28;20049;-74
2021/09/04 11:10:32;;;;;;;7.57;5.35;;;;;;;25.15;43.59;95595.72;5026705;28;20122;-74
2021/09/04 11:13:05;;;;;;;7.07;5.00;;;;;;;25.60;43.91;95587.91;5020640;28;20041;-74
2021/09/04 11:15:32;;;;;;;9.52;4.93;;;;;;;25.31;43.22;95584.81;5030330;28;20042;-74
2021/09/04 11:17:58;;;;;;;8.65;5.05;;;;;;;24.58;43.90;95581.31;5030854;28;20053;-73
2021/09/04 11:20:24;;;;;;;6.55;4.97;;;;;;;25.34;42.63;95584.13;5021687;28;20072;-74
2021/09/04 11:22:50;;;;;;;8.25;4.78;;;;;;;26.91;37.54;95580.09;5027649;28;20578;-74
2021/09/04 11:25:19;;;;;;;6.53;4.47;;;;;;;25.91;41.02;95580.59;5029649;28;20065;-74